createdAt,value
2023-05-24T00:01:01.168Z,44.56
2023-05-24T00:03:03.166Z,44.25
2023-05-24T00:05:07.516Z,44.04
2023-05-24T00:07:09.188Z,44.01
2023-05-24T00:09:11.046Z,43.42
2023-05-24T00:11:12.740Z,43.71
2023-05-24T00:13:14.538Z,43.31
2023-05-24T00:15:16.464Z,43.41
2023-05-24T00:17:18.069Z,43.81
2023-05-24T00:19:19.915Z,43.52
2023-05-24T00:21:23.033Z,43.75
2023-05-24T00:23:25.051Z,43.69
2023-05-24T00:25:26.846Z,43.59
2023-05-24T00:27:28.897Z,43.58
2023-05-24T00:29:32.211Z,43.93
2023-05-24T00:31:42.935Z,43.69
2023-05-24T00:33:44.631Z,43.63
2023-05-24T00:35:46.482Z,43.84
2023-05-24T00:37:49.456Z,44.03
2023-05-24T00:39:51.068Z,43.65
2023-05-24T00:41:52.701Z,43.39
2023-05-24T00:43:54.339Z,43.68
2023-05-24T00:46:12.965Z,43.56
2023-05-24T00:48:14.694Z,42.93
2023-05-24T00:50:19.468Z,42.83
2023-05-24T00:52:21.492Z,43.10
2023-05-24T00:54:25.199Z,42.94
2023-05-24T00:56:27.279Z,42.64
2023-05-24T00:58:29.726Z,42.55
2023-05-24T01:00:32.545Z,42.33
2023-05-24T01:02:34.535Z,42.31
2023-05-24T01:04:36.483Z,42.26
2023-05-24T01:06:51.083Z,42.65
2023-05-24T01:09:07.491Z,42.80
2023-05-24T01:11:21.463Z,42.82
2023-05-24T01:13:30.617Z,43.12
2023-05-24T01:15:41.541Z,42.81
2023-05-24T01:17:51.721Z,43.43
2023-05-24T01:19:57.333Z,43.42
2023-05-24T01:22:08.790Z,43.63
2023-05-24T01:24:19.568Z,43.47
2023-05-24T01:26:37.306Z,43.37
2023-05-24T01:28:42.117Z,43.34
2023-05-24T01:30:44.804Z,43.31
2023-05-24T01:32:46.679Z,43.40
2023-05-24T01:34:48.370Z,43.66
2023-05-24T01:36:49.986Z,43.85
2023-05-24T01:38:51.917Z,43.87
2023-05-24T01:41:04.530Z,43.88
2023-05-24T01:43:15.639Z,43.69
2023-05-24T01:45:25.590Z,44.05
2023-05-24T01:47:36.527Z,44.24
2023-05-24T01:49:44.115Z,44.23
2023-05-24T01:51:49.670Z,43.98
2023-05-24T01:53:53.051Z,44.13
2023-05-24T01:55:57.215Z,43.81
2023-05-24T01:58:02.603Z,43.60
2023-05-24T02:00:06.799Z,43.50
2023-05-24T02:02:10.788Z,43.37
2023-05-24T02:04:13.217Z,43.47
2023-05-24T02:06:14.875Z,43.56
2023-05-24T02:08:16.802Z,43.25
2023-05-24T02:10:18.488Z,43.61
2023-05-24T02:12:20.158Z,43.93
2023-05-24T02:14:21.943Z,43.96
2023-05-24T02:16:23.813Z,44.18
2023-05-24T02:18:26.997Z,44.08
2023-05-24T02:20:29.287Z,44.02
2023-05-24T02:22:31.044Z,43.93
2023-05-24T02:24:32.758Z,43.98
2023-05-24T02:26:34.368Z,43.91
2023-05-24T02:28:35.967Z,43.95
2023-05-24T02:30:37.746Z,44.11
2023-05-24T02:32:39.600Z,43.94
2023-05-24T02:34:42.906Z,44.21
2023-05-24T02:36:44.528Z,44.05
2023-05-24T02:38:46.262Z,44.02
2023-05-24T02:40:50.554Z,44.01
2023-05-24T02:42:52.182Z,44.10
2023-05-24T02:44:53.880Z,44.07
2023-05-24T02:46:57.373Z,44.04
2023-05-24T02:48:59.441Z,44.07
2023-05-24T02:51:02.556Z,44.36
2023-05-24T02:53:04.375Z,44.12
2023-05-24T02:55:07.346Z,44.12
2023-05-24T02:57:11.639Z,44.24
2023-05-24T02:59:13.266Z,44.85
2023-05-24T03:01:15.125Z,44.21
2023-05-24T03:03:16.992Z,44.18
2023-05-24T03:05:18.984Z,44.26
2023-05-24T03:07:21.940Z,44.24
2023-05-24T03:09:23.642Z,44.40
2023-05-24T03:11:25.243Z,44.34
2023-05-24T03:13:26.836Z,44.16
2023-05-24T03:15:28.493Z,44.46
2023-05-24T03:17:30.196Z,44.24
2023-05-24T03:19:31.861Z,44.34
2023-05-24T03:21:33.641Z,44.43
2023-05-24T03:23:36.970Z,44.47
2023-05-24T03:25:38.657Z,44.33
2023-05-24T03:27:40.341Z,44.33
2023-05-24T03:29:41.942Z,43.94
2023-05-24T03:31:43.814Z,44.59
2023-05-24T03:33:45.473Z,44.51
2023-05-24T03:35:47.169Z,44.70
2023-05-24T03:37:48.975Z,44.40
2023-05-24T03:39:52.060Z,44.44
2023-05-24T03:41:53.748Z,44.22
2023-05-24T03:43:55.431Z,44.06
2023-05-24T03:45:57.114Z,43.98
2023-05-24T03:47:58.852Z,44.36
2023-05-24T03:50:00.560Z,44.43
2023-05-24T03:52:02.442Z,44.44
2023-05-24T03:54:04.301Z,44.37
2023-05-24T03:56:07.496Z,44.66
2023-05-24T03:58:09.118Z,44.42
2023-05-24T04:00:11.850Z,44.70
2023-05-24T04:02:13.625Z,44.37
2023-05-24T04:04:15.401Z,44.88
2023-05-24T04:06:17.699Z,45.29
2023-05-24T04:08:19.667Z,44.65
2023-05-24T04:10:21.343Z,45.30
2023-05-24T04:12:24.351Z,45.28
2023-05-24T04:14:25.911Z,45.35
2023-05-24T04:16:28.396Z,45.53
2023-05-24T04:18:30.192Z,45.61
2023-05-24T04:20:32.327Z,45.61
2023-05-24T04:22:34.128Z,45.62
2023-05-24T04:24:36.154Z,45.55
2023-05-24T04:26:37.794Z,45.90
2023-05-24T04:28:41.289Z,45.72
2023-05-24T04:30:43.133Z,46.08
2023-05-24T04:32:47.683Z,45.91
2023-05-24T04:34:49.800Z,45.78
2023-05-24T04:36:51.396Z,45.48
2023-05-24T04:38:52.982Z,45.41
2023-05-24T04:40:54.564Z,45.48
2023-05-24T04:42:56.525Z,45.65
2023-05-24T04:44:59.628Z,45.66
2023-05-24T04:47:01.247Z,45.61
2023-05-24T04:49:03.254Z,45.32
2023-05-24T04:51:04.898Z,45.15
2023-05-24T04:53:06.653Z,44.90
2023-05-24T04:55:09.117Z,44.93
2023-05-24T04:57:10.726Z,44.36
2023-05-24T04:59:12.408Z,44.45
2023-05-24T05:01:15.730Z,44.93
2023-05-24T05:03:17.577Z,44.84
2023-05-24T05:05:19.516Z,44.94
2023-05-24T05:07:21.130Z,45.32
2023-05-24T05:09:22.756Z,45.30
2023-05-24T05:11:24.411Z,45.14
2023-05-24T05:13:26.008Z,45.35
2023-05-24T05:15:27.829Z,45.56
2023-05-24T05:17:30.928Z,45.60
2023-05-24T05:19:32.562Z,45.33
2023-05-24T05:21:34.625Z,44.95
2023-05-24T05:23:36.269Z,45.00
2023-05-24T05:25:38.011Z,45.21
2023-05-24T05:27:39.660Z,45.19
2023-05-24T05:29:41.305Z,45.09
2023-05-24T05:31:42.931Z,45.02
2023-05-24T05:33:45.908Z,44.90
2023-05-24T05:35:47.683Z,44.78
2023-05-24T05:37:49.428Z,44.94
2023-05-24T05:39:51.120Z,44.83
2023-05-24T05:41:52.713Z,49.70
2023-05-24T05:43:54.446Z,46.87
2023-05-24T05:45:56.197Z,46.01
2023-05-24T05:47:57.910Z,49.53
2023-05-24T05:50:00.961Z,49.23
2023-05-24T05:52:02.611Z,42.94
2023-05-24T05:54:04.485Z,46.24
2023-05-24T05:56:06.297Z,42.56
2023-05-24T05:58:08.273Z,48.06
2023-05-24T06:00:10.834Z,42.57
2023-05-24T06:02:12.483Z,39.85
2023-05-24T06:04:14.487Z,40.77
2023-05-24T06:06:17.572Z,40.74
2023-05-24T06:08:19.326Z,41.37
2023-05-24T06:10:23.474Z,44.50
2023-05-24T06:12:25.376Z,44.61
2023-05-24T06:14:27.013Z,44.69
2023-05-24T06:16:28.724Z,46.31
2023-05-24T06:18:30.434Z,46.13
2023-05-24T06:20:32.419Z,38.70
2023-05-24T06:22:35.392Z,38.59
2023-05-24T06:24:37.022Z,39.06
2023-05-24T06:26:38.678Z,40.03
2023-05-24T06:28:40.300Z,40.42
2023-05-24T06:30:42.055Z,39.68
2023-05-24T06:32:44.025Z,40.71
2023-05-24T06:34:45.633Z,40.65
2023-05-24T06:36:47.924Z,39.89
2023-05-24T06:38:50.870Z,40.61
2023-05-24T06:40:52.586Z,40.44
2023-05-24T06:42:54.251Z,38.59
2023-05-24T06:44:55.833Z,38.35
2023-05-24T06:46:57.504Z,38.80
2023-05-24T06:48:59.377Z,39.31
2023-05-24T06:51:01.095Z,39.65
2023-05-24T06:53:02.777Z,38.45
2023-05-24T06:55:06.509Z,38.09
2023-05-24T06:57:08.160Z,38.00
2023-05-24T06:59:09.858Z,38.57
2023-05-24T07:01:11.753Z,38.14
2023-05-24T07:03:13.951Z,37.89
2023-05-24T07:05:15.601Z,36.92
2023-05-24T07:07:17.387Z,38.24
2023-05-24T07:09:19.192Z,39.61
2023-05-24T07:11:22.615Z,38.23
2023-05-24T07:13:24.477Z,36.39
2023-05-24T07:15:26.122Z,38.53
2023-05-24T07:17:27.788Z,37.80
2023-05-24T07:19:31.908Z,35.71
2023-05-24T07:21:35.688Z,37.51
2023-05-24T07:23:37.425Z,36.63
2023-05-24T07:25:39.272Z,41.89
2023-05-24T07:27:42.278Z,38.26
2023-05-24T07:29:45.705Z,38.30
2023-05-24T07:31:48.848Z,40.02
2023-05-24T07:33:50.691Z,38.21
2023-05-24T07:35:52.289Z,36.71
2023-05-24T07:37:54.019Z,40.70
2023-05-24T07:39:55.683Z,45.07
2023-05-24T07:41:57.377Z,36.46
2023-05-24T07:44:00.473Z,37.97
2023-05-24T07:46:02.303Z,39.49
2023-05-24T07:48:03.951Z,36.94
2023-05-24T07:50:09.338Z,34.14
2023-05-24T07:52:11.005Z,33.71
2023-05-24T07:54:12.646Z,35.48
2023-05-24T07:56:14.401Z,33.87
2023-05-24T07:58:16.084Z,34.40
2023-05-24T08:00:20.198Z,34.29
2023-05-24T08:02:21.938Z,34.61
2023-05-24T08:04:23.625Z,34.76
2023-05-24T08:06:25.292Z,34.46
2023-05-24T08:08:26.947Z,39.33
2023-05-24T08:10:28.552Z,35.15
2023-05-24T08:12:30.191Z,34.16
2023-05-24T08:14:31.926Z,33.95
2023-05-24T08:16:35.150Z,35.21
2023-05-24T08:18:36.863Z,34.99
2023-05-24T08:20:39.149Z,33.42
2023-05-24T08:22:41.117Z,35.11
2023-05-24T08:24:42.789Z,34.43
2023-05-24T08:26:44.498Z,40.83
2023-05-24T08:28:46.218Z,41.32
2023-05-24T08:30:47.809Z,35.47
2023-05-24T08:32:51.117Z,42.13
2023-05-24T08:34:57.953Z,40.61
2023-05-24T08:37:05.504Z,42.20
2023-05-24T08:39:07.258Z,41.75
2023-05-24T08:41:11.657Z,37.37
2023-05-24T08:43:14.617Z,41.60
2023-05-24T08:45:17.247Z,41.59
2023-05-24T08:47:20.522Z,38.31
2023-05-24T08:49:24.318Z,38.12
2023-05-24T08:51:26.221Z,39.56
2023-05-24T08:53:30.066Z,32.14
2023-05-24T08:55:33.446Z,39.55
2023-05-24T08:57:36.275Z,33.61
2023-05-24T08:59:40.136Z,38.69
2023-05-24T09:01:42.606Z,38.87
2023-05-24T09:03:46.601Z,37.26
2023-05-24T09:05:50.163Z,33.99
2023-05-24T09:07:54.100Z,31.70
2023-05-24T09:10:01.218Z,31.76
2023-05-24T09:12:05.845Z,39.71
2023-05-24T09:14:08.109Z,32.16
2023-05-24T09:16:10.049Z,32.00
2023-05-24T09:18:11.736Z,33.02
2023-05-24T09:20:13.722Z,39.44
2023-05-24T09:22:17.660Z,38.63
2023-05-24T09:24:19.793Z,39.15
2023-05-24T09:26:22.061Z,30.29
2023-05-24T09:28:24.065Z,33.53
2023-05-24T09:30:28.822Z,29.60
2023-05-24T09:32:31.042Z,36.08
2023-05-24T09:34:38.878Z,33.88
2023-05-24T09:36:41.195Z,30.04
2023-05-24T09:38:44.187Z,36.42
2023-05-24T09:40:46.141Z,32.86
2023-05-24T09:42:47.825Z,36.81
2023-05-24T09:44:50.136Z,36.26
2023-05-24T09:46:51.859Z,35.00
2023-05-24T09:48:57.487Z,28.27
2023-05-24T09:51:03.366Z,35.18
2023-05-24T09:53:05.374Z,30.14
2023-05-24T09:55:15.704Z,28.83
2023-05-24T09:57:17.677Z,29.23
2023-05-24T09:59:20.046Z,32.73
2023-05-24T10:01:23.418Z,30.08
2023-05-24T10:03:25.653Z,32.33
2023-05-24T10:05:27.646Z,31.31
2023-05-24T10:07:30.098Z,34.27
2023-05-24T10:09:32.530Z,31.07
2023-05-24T10:11:36.344Z,31.33
2023-05-24T10:13:39.415Z,30.82
2023-05-24T10:15:41.368Z,32.95
2023-05-24T10:17:43.202Z,32.61
2023-05-24T10:19:44.859Z,32.67
2023-05-24T10:21:46.839Z,31.64
2023-05-24T10:23:54.083Z,30.57
2023-05-24T10:26:03.048Z,31.50
2023-05-24T10:28:10.123Z,33.67
2023-05-24T10:30:16.839Z,31.20
2023-05-24T10:32:20.160Z,34.17
2023-05-24T10:34:24.649Z,33.31
2023-05-24T10:36:26.647Z,34.29
2023-05-24T10:38:29.961Z,34.62
2023-05-24T10:40:32.249Z,33.87
2023-05-24T10:42:35.129Z,32.01
2023-05-24T10:44:38.353Z,34.09
2023-05-24T10:47:08.788Z,29.18
2023-05-24T10:49:13.699Z,29.45
2023-05-24T10:51:43.869Z,28.65
2023-05-24T10:53:45.929Z,28.80
2023-05-24T10:55:55.587Z,28.80
2023-05-24T10:57:57.183Z,28.93
2023-05-24T11:00:35.884Z,28.71
2023-05-24T11:02:44.873Z,33.52
2023-05-24T11:04:47.274Z,31.99
2023-05-24T11:06:56.419Z,29.64
2023-05-24T11:09:00.832Z,41.92
2023-05-24T11:11:19.210Z,30.12
2023-05-24T11:13:27.479Z,43.16
2023-05-24T11:15:30.588Z,40.69
2023-05-24T11:18:10.629Z,39.95
2023-05-24T11:20:13.759Z,30.29
2023-05-24T11:22:15.675Z,38.13
2023-05-24T11:24:18.312Z,33.41
2023-05-24T11:26:20.061Z,41.46
2023-05-24T11:28:21.800Z,33.29
2023-05-24T11:30:23.880Z,45.08
2023-05-24T11:32:25.591Z,45.66
2023-05-24T11:34:27.433Z,32.94
2023-05-24T11:36:30.929Z,32.52
2023-05-24T11:38:35.112Z,34.97
2023-05-24T11:40:37.036Z,31.25
2023-05-24T11:42:38.799Z,31.52
2023-05-24T11:44:40.638Z,29.28
2023-05-24T11:46:43.348Z,28.92
2023-05-24T11:48:56.020Z,29.98
2023-05-24T11:50:57.732Z,25.83
2023-05-24T11:53:03.777Z,26.47
2023-05-24T11:55:06.702Z,29.63
2023-05-24T11:57:11.920Z,38.69
2023-05-24T11:59:16.281Z,34.59
2023-05-24T12:01:25.218Z,25.34
2023-05-24T12:03:27.050Z,37.09
2023-05-24T12:05:28.880Z,28.35
2023-05-24T12:07:30.531Z,29.17
2023-05-24T12:09:33.483Z,33.37
2023-05-24T12:11:37.849Z,28.52
2023-05-24T12:13:40.183Z,27.00
2023-05-24T12:15:42.013Z,34.85
2023-05-24T12:17:44.654Z,28.75
2023-05-24T12:19:49.985Z,26.29
2023-05-24T12:21:56.252Z,30.30
2023-05-24T12:23:58.099Z,29.60
2023-05-24T12:26:01.798Z,32.54
2023-05-24T12:28:03.479Z,32.59
2023-05-24T12:30:09.652Z,28.72
2023-05-24T12:32:11.604Z,28.34
2023-05-24T12:34:13.334Z,29.90
2023-05-24T12:36:15.056Z,29.40
2023-05-24T12:38:19.528Z,21.33
2023-05-24T12:40:21.978Z,25.22
2023-05-24T12:42:26.375Z,23.19
2023-05-24T12:44:29.727Z,21.83
2023-05-24T12:46:31.629Z,27.21
2023-05-24T12:48:33.329Z,19.83
2023-05-24T12:50:35.000Z,20.47
2023-05-24T12:52:36.731Z,24.75
2023-05-24T12:54:38.429Z,26.28
2023-05-24T12:56:40.112Z,26.29
2023-05-24T12:58:43.130Z,23.00
2023-05-24T13:00:45.109Z,19.89
2023-05-24T13:02:47.298Z,22.09
2023-05-24T13:04:49.089Z,27.65
2023-05-24T13:06:50.780Z,25.62
2023-05-24T13:08:52.507Z,22.50
2023-05-24T13:10:54.360Z,21.82
2023-05-24T13:12:56.346Z,21.50
2023-05-24T13:14:59.301Z,21.06
2023-05-24T13:17:00.992Z,26.03
2023-05-24T13:19:02.733Z,23.34
2023-05-24T13:21:04.473Z,21.31
2023-05-24T13:23:06.153Z,20.14
2023-05-24T13:25:09.192Z,19.67
2023-05-24T13:27:10.841Z,23.15
2023-05-24T13:31:18.780Z,22.93
2023-05-24T13:33:20.475Z,20.88
2023-05-24T13:35:22.124Z,20.73
2023-05-24T13:37:23.840Z,20.38
2023-05-24T13:39:25.799Z,19.79
2023-05-24T13:41:27.612Z,19.47
2023-05-24T13:43:29.444Z,19.34
2023-05-24T13:45:31.083Z,25.34
2023-05-24T13:47:39.975Z,20.59
2023-05-24T13:49:42.482Z,20.61
2023-05-24T13:51:44.100Z,19.82
2023-05-24T13:53:45.974Z,20.22
2023-05-24T13:55:47.692Z,19.83
2023-05-24T13:57:51.845Z,20.65
2023-05-24T13:59:54.009Z,35.15
2023-05-24T14:01:55.741Z,35.96
2023-05-24T14:03:58.884Z,36.01
2023-05-24T14:06:00.609Z,34.37
2023-05-24T14:08:02.351Z,36.03
2023-05-24T14:10:04.474Z,35.92
2023-05-24T14:12:06.601Z,35.59
2023-05-24T14:14:57.715Z,35.54
2023-05-24T14:16:30.231Z,36.49
2023-05-24T14:18:31.982Z,36.36
2023-05-24T14:20:35.545Z,36.60
2023-05-24T14:22:37.200Z,34.89
2023-05-24T14:24:48.148Z,30.72
2023-05-24T14:26:49.761Z,30.15
2023-05-24T14:28:54.347Z,31.45
2023-05-24T14:30:56.184Z,35.14
2023-05-24T14:32:58.546Z,34.94
2023-05-24T14:35:00.168Z,35.02
2023-05-24T14:37:03.268Z,34.83
2023-05-24T14:39:05.220Z,35.10
2023-05-24T14:41:07.651Z,32.91
2023-05-24T14:43:09.704Z,35.00
2023-05-24T14:45:12.119Z,34.75
2023-05-24T14:47:13.772Z,34.59
2023-05-24T14:49:15.373Z,34.84
2023-05-24T14:51:17.076Z,30.69
2023-05-24T14:53:20.060Z,34.83
2023-05-24T14:55:21.692Z,35.16
2023-05-24T14:57:23.402Z,34.81
2023-05-24T14:59:25.029Z,34.66
2023-05-24T15:01:26.683Z,34.67
2023-05-24T15:03:28.496Z,34.55
2023-05-24T15:05:30.234Z,33.68
2023-05-24T15:07:31.851Z,34.41
2023-05-24T15:09:35.169Z,34.95
2023-05-24T15:11:36.806Z,35.29
2023-05-24T15:13:38.433Z,35.41
2023-05-24T15:15:40.089Z,35.76
2023-05-24T15:17:41.910Z,36.04
2023-05-24T15:19:43.567Z,31.99
2023-05-24T15:21:45.334Z,35.10
2023-05-24T15:23:47.393Z,35.08
2023-05-24T15:25:50.422Z,35.16
2023-05-24T15:27:52.091Z,35.29
2023-05-24T15:29:53.943Z,33.90
2023-05-24T15:31:55.592Z,33.01
2023-05-24T15:33:57.212Z,35.63
2023-05-24T15:35:59.079Z,35.65
2023-05-24T15:38:00.665Z,31.56
2023-05-24T15:40:02.350Z,34.89
2023-05-24T15:42:05.932Z,34.68
2023-05-24T15:44:07.574Z,35.16
2023-05-24T15:46:09.279Z,34.47
2023-05-24T15:48:11.157Z,35.64
2023-05-24T15:50:12.982Z,35.45
2023-05-24T15:52:14.847Z,34.81
2023-05-24T15:54:16.545Z,35.21
2023-05-24T15:56:18.199Z,35.32
2023-05-24T15:58:21.319Z,34.46
2023-05-24T16:00:23.049Z,34.82
2023-05-24T16:02:24.854Z,34.84
2023-05-24T16:04:26.522Z,34.54
2023-05-24T16:06:28.151Z,34.71
2023-05-24T16:08:29.920Z,31.44
2023-05-24T16:10:32.055Z,34.39
2023-05-24T16:12:33.716Z,34.65
2023-05-24T16:14:39.662Z,31.11
2023-05-24T16:16:41.858Z,34.97
2023-05-24T16:18:43.549Z,35.10
2023-05-24T16:20:45.491Z,34.71
2023-05-24T16:22:47.824Z,34.19
2023-05-24T16:24:49.615Z,33.13
2023-05-24T16:26:51.378Z,30.05
2023-05-24T16:28:53.375Z,26.83
2023-05-24T16:30:56.496Z,28.66
2023-05-24T16:32:58.328Z,26.37
2023-05-24T16:35:00.031Z,29.80
2023-05-24T16:37:02.714Z,30.51
2023-05-24T16:39:04.628Z,29.05
2023-05-24T16:41:06.721Z,25.03
2023-05-24T16:43:08.586Z,25.67
2023-05-24T16:45:10.787Z,25.01
2023-05-24T16:47:13.966Z,25.16
2023-05-24T16:49:15.644Z,24.90
2023-05-24T16:51:17.944Z,25.66
2023-05-24T16:53:19.671Z,25.37
2023-05-24T16:55:21.287Z,25.27
2023-05-24T16:57:23.024Z,25.08
2023-05-24T16:59:24.730Z,25.45
2023-05-24T17:01:26.443Z,26.72
2023-05-24T17:03:30.813Z,25.04
2023-05-24T17:05:32.636Z,25.92
2023-05-24T17:07:34.503Z,25.40
2023-05-24T17:09:36.448Z,25.94
2023-05-24T17:11:38.231Z,25.79
2023-05-24T17:13:40.222Z,26.11
2023-05-24T17:15:42.004Z,26.40
2023-05-24T17:17:43.760Z,26.50
2023-05-24T17:19:47.008Z,26.68
2023-05-24T17:21:48.675Z,26.64
2023-05-24T17:23:50.568Z,26.33
2023-05-24T17:25:52.285Z,26.85
2023-05-24T17:27:54.021Z,26.15
2023-05-24T17:29:55.769Z,26.44
2023-05-24T17:31:57.420Z,26.13
2023-05-24T17:33:59.169Z,26.44
2023-05-24T17:36:02.277Z,26.26
2023-05-24T17:38:03.918Z,26.83
2023-05-24T17:40:07.072Z,26.14
2023-05-24T17:42:08.833Z,26.48
2023-05-24T17:44:10.703Z,26.50
2023-05-24T17:46:12.654Z,26.78
2023-05-24T17:48:14.588Z,27.51
2023-05-24T17:50:16.343Z,27.20
2023-05-24T17:52:19.382Z,27.50
2023-05-24T17:54:21.127Z,28.00
2023-05-24T17:56:22.784Z,29.40
2023-05-24T17:58:24.611Z,27.53
2023-05-24T18:00:26.575Z,26.99
2023-05-24T18:02:28.224Z,27.21
2023-05-24T18:04:29.902Z,28.02
2023-05-24T18:06:31.564Z,27.26
2023-05-24T18:08:36.406Z,27.71
2023-05-24T18:10:38.106Z,27.43
2023-05-24T18:12:40.292Z,28.12
2023-05-24T18:14:42.001Z,28.11
2023-05-24T18:16:43.747Z,28.20
2023-05-24T18:18:45.554Z,28.17
2023-05-24T18:20:47.292Z,28.56
2023-05-24T18:22:49.115Z,28.42
2023-05-24T18:24:52.258Z,28.33
2023-05-24T18:26:53.886Z,28.90
2023-05-24T18:28:55.506Z,28.83
2023-05-24T18:30:57.615Z,28.75
2023-05-24T18:33:07.211Z,28.70
2023-05-24T18:35:11.653Z,29.12
2023-05-24T18:37:13.544Z,29.41
2023-05-24T18:39:15.268Z,29.79
2023-05-24T18:41:18.437Z,29.96
2023-05-24T18:43:20.287Z,30.14
2023-05-24T18:45:21.964Z,29.97
2023-05-24T18:47:23.602Z,29.43
2023-05-24T18:49:25.347Z,30.17
2023-05-24T18:51:27.026Z,31.57
2023-05-24T18:53:28.760Z,30.55
2023-05-24T18:55:30.486Z,30.56
2023-05-24T18:57:33.508Z,30.40
2023-05-24T18:59:36.635Z,30.35
2023-05-24T19:01:38.359Z,30.87
2023-05-24T19:03:40.328Z,30.43
2023-05-24T19:05:44.204Z,30.70
2023-05-24T19:07:46.253Z,30.54
2023-05-24T19:09:47.879Z,30.25
2023-05-24T19:11:49.562Z,30.66
2023-05-24T19:13:52.630Z,31.05
2023-05-24T19:15:54.267Z,30.95
2023-05-24T19:17:55.988Z,30.88
2023-05-24T19:19:57.638Z,31.47
2023-05-24T19:21:59.460Z,31.78
2023-05-24T19:24:01.087Z,32.47
2023-05-24T19:26:02.865Z,32.27
2023-05-24T19:28:04.529Z,32.25
2023-05-24T19:30:09.074Z,32.12
2023-05-24T19:32:10.840Z,31.99
2023-05-24T19:34:15.412Z,32.24
2023-05-24T19:36:18.381Z,32.32
2023-05-24T19:38:20.037Z,32.11
2023-05-24T19:40:21.752Z,31.68
2023-05-24T19:42:23.344Z,31.68
2023-05-24T19:44:25.076Z,32.58
2023-05-24T19:46:28.324Z,32.23
2023-05-24T19:48:32.053Z,32.09
2023-05-24T19:50:33.737Z,31.95
2023-05-24T19:52:35.401Z,32.29
2023-05-24T19:54:37.087Z,32.13
2023-05-24T19:56:38.887Z,32.28
2023-05-24T19:58:40.507Z,31.93
2023-05-24T20:00:42.210Z,32.21
2023-05-24T20:02:45.324Z,32.00
2023-05-24T20:04:46.954Z,32.12
2023-05-24T20:06:48.693Z,32.15
2023-05-24T20:08:50.372Z,32.73
2023-05-24T20:10:52.093Z,32.69
2023-05-24T20:12:53.777Z,32.62
2023-05-24T20:14:55.538Z,32.80
2023-05-24T20:16:57.343Z,33.17
2023-05-24T20:19:00.377Z,32.94
2023-05-24T20:21:02.105Z,32.72
2023-05-24T20:23:03.735Z,33.07
2023-05-24T20:25:06.367Z,32.78
2023-05-24T20:27:07.977Z,32.99
2023-05-24T20:29:09.725Z,32.86
2023-05-24T20:31:11.564Z,33.14
2023-05-24T20:33:13.294Z,32.80
2023-05-24T20:35:16.354Z,32.69
2023-05-24T20:37:18.042Z,32.90
2023-05-24T20:39:19.631Z,32.79
2023-05-24T20:41:21.300Z,33.02
2023-05-24T20:43:22.962Z,33.45
2023-05-24T20:45:24.622Z,33.08
2023-05-24T20:47:28.133Z,32.98
2023-05-24T20:49:31.595Z,32.89
2023-05-24T20:51:34.852Z,33.07
2023-05-24T20:53:37.072Z,33.28
2023-05-24T20:55:38.652Z,33.61
2023-05-24T20:57:40.264Z,33.41
2023-05-24T20:59:41.908Z,33.36
2023-05-24T21:01:43.561Z,33.23
2023-05-24T21:03:45.440Z,33.63
2023-05-24T21:05:47.108Z,33.51
2023-05-24T21:07:56.250Z,33.90
2023-05-24T21:09:58.253Z,34.16
2023-05-24T21:11:59.908Z,33.93
2023-05-24T21:14:01.839Z,34.16
2023-05-24T21:16:03.711Z,34.14
2023-05-24T21:18:05.421Z,34.01
2023-05-24T21:20:07.837Z,34.40
2023-05-24T21:22:09.495Z,34.24
2023-05-24T21:24:12.460Z,34.52
2023-05-24T21:26:14.068Z,34.32
2023-05-24T21:28:15.702Z,34.01
2023-05-24T21:30:17.315Z,34.45
2023-05-24T21:32:18.944Z,33.88
2023-05-24T21:34:20.609Z,33.75
2023-05-24T21:36:22.297Z,34.56
2023-05-24T21:38:24.112Z,34.00
2023-05-24T21:40:27.170Z,34.37
2023-05-24T21:42:28.751Z,34.31
2023-05-24T21:44:30.389Z,33.67
2023-05-24T21:46:32.091Z,34.25
2023-05-24T21:48:33.706Z,34.04
2023-05-24T21:50:35.639Z,34.02
2023-05-24T21:52:37.353Z,34.04
2023-05-24T21:54:38.960Z,34.04
2023-05-24T21:56:41.924Z,33.79
2023-05-24T21:58:43.558Z,34.22
2023-05-24T22:00:45.255Z,34.10
2023-05-24T22:02:47.452Z,34.43
2023-05-24T22:04:49.394Z,34.46
2023-05-24T22:06:51.004Z,34.64
2023-05-24T22:08:52.634Z,34.25
2023-05-24T22:10:54.240Z,34.66
2023-05-24T22:12:57.169Z,34.74
2023-05-24T22:15:00.913Z,34.49
2023-05-24T22:17:02.577Z,35.04
2023-05-24T22:19:10.212Z,34.63
2023-05-24T22:21:11.831Z,34.65
2023-05-24T22:23:14.561Z,34.83
2023-05-24T22:25:16.624Z,34.85
2023-05-24T22:27:18.223Z,35.27
2023-05-24T22:29:21.283Z,34.66
2023-05-24T22:31:23.078Z,35.01
2023-05-24T22:33:24.729Z,35.09
2023-05-24T22:35:26.536Z,34.92
2023-05-24T22:37:28.186Z,34.59
2023-05-24T22:39:29.773Z,34.57
2023-05-24T22:41:31.456Z,34.92
2023-05-24T22:43:33.392Z,34.96
2023-05-24T22:45:36.373Z,35.22
2023-05-24T22:47:37.999Z,34.97
2023-05-24T22:49:39.791Z,35.18
2023-05-24T22:51:41.451Z,34.73
2023-05-24T22:53:43.162Z,35.09
2023-05-24T22:55:44.856Z,34.75
2023-05-24T22:57:46.678Z,34.97
2023-05-24T22:59:48.394Z,35.10
2023-05-24T23:01:51.969Z,35.25
2023-05-24T23:03:54.358Z,34.85
2023-05-24T23:05:58.188Z,34.71
2023-05-24T23:07:59.820Z,34.89
2023-05-24T23:10:01.440Z,35.30
2023-05-24T23:12:04.172Z,35.18
2023-05-24T23:14:05.808Z,34.77
2023-05-24T23:16:07.503Z,35.15
2023-05-24T23:18:10.509Z,35.68
2023-05-24T23:20:12.471Z,35.40
2023-05-24T23:22:14.926Z,35.40
2023-05-24T23:24:16.669Z,35.41
2023-05-24T23:26:18.490Z,35.50
2023-05-24T23:28:20.251Z,36.07
2023-05-24T23:30:22.095Z,35.59
2023-05-24T23:32:25.487Z,35.63
2023-05-24T23:34:28.472Z,35.25
2023-05-24T23:36:30.158Z,35.77
2023-05-24T23:38:31.708Z,35.74
2023-05-24T23:40:33.593Z,35.75
2023-05-24T23:42:35.424Z,35.54
2023-05-24T23:44:37.053Z,36.15
2023-05-24T23:46:39.910Z,35.76
2023-05-24T23:48:41.539Z,36.18
2023-05-24T23:50:53.437Z,35.81
2023-05-24T23:52:56.176Z,36.28
2023-05-24T23:54:57.906Z,36.43
2023-05-24T23:56:59.537Z,36.15
2023-05-24T23:59:01.148Z,36.14
